Aeroporto :
LOGIN :

Iscrizione | Disclaimer

   EN    FR    IT 

 










Sommario :    VFR   VFR Marginale   IFR   IFR Intensivo   IFR Molto Intensivo
Visibilità : 
Base nubi : 
>= 8 km
>= 3000ft
5 / 8 km
1000 / 3000 ft
1500m / 5 km
500 / 1000 ft
800 / 1500m
200 / 500 ft
< 800m
< 200 ft
Simboli :   Temporali  Nebbia  Neve Forte  Precipitazioni Forti  Vento > 20 kt
SIGMETs :   Varie  Temporali  Ghiacco  Turbolenza  Onda orograficha  Ceneri Vulcaniche






- Altitudine del aeroporto : 885 ft
- Codice IATA : BAS


LFSB - Bale-Mulhouse

ULTIMO METAR :
  • 141830Z 34008KT 320V020 CAVOK 05/03 Q0998 NOSIG

METARs OBSOLETI :
  • 141800Z 34009KT CAVOK 05/02 Q0998 NOSIG
  • 141730Z 33009KT CAVOK 05/02 Q0998 NOSIG
  • 141700Z 33005KT CAVOK 06/02 Q0998 NOSIG
  • 141630Z 34006KT CAVOK 06/02 Q0998 NOSIG
  • 141600Z VRB02KT CAVOK 06/02 Q0999 NOSIG

TAF TAF LFSB
Valido dal 14 a 18 ore il 15 a 18 ore UTC


141700Z 1418/1518 32005KT CAVOK
BECMG 1419/1421 BKN007
TEMPO 1421/1506 3000 BR
PROB40
TEMPO 1501/1506 BKN003
BECMG 1506/1508 NSC
PROB30
TEMPO 1506/1508 -RA BKN005
Met : +33 3 89 90 31 11



MetMap, La meteo Aeronautica in un colpo d'occhio ! - Copyright ORBIFLY Dicembre 2007 - Disclaimer

ORBIFLY MET'MAP TEAM :

Programmazione e sviluppo : Alexandra Zaïnal
Concezione e sviluppo : Baudouin d'Aumeries
Co-Programmazione e sviluppo : Marc-Olivier Méhu
Supporto tecnico e logistico : Manuel Goepfert
Aiuto per la traduzione : Arnaldo La Scala

Contatto : metmap@orbifly.com




FONTI E CREDITI :

   NOAA